Terminal Aerodrome Forecast
Issued by NWS Bismarck, ND

Home | Current Version | Previous Version | Text Only | Print | Product List | Glossary On
Versions: 1 2 3 4 5 6 7 8 9 10 11 12
000
FTUS43 KBIS 181700
TAFBIS
TAF
KBIS 181734Z 1818/1918 17014G23KT P6SM SCT100
     FM190000 17014KT P6SM SCT200
     FM191600 25006KT P6SM BKN140=

USA.gov is the U.S. government's official web portal to all federal, state and local government web resources and services.